Time,TemperatureF,DewpointF,PressureIn,WindDirection,WindDirectionDegrees,WindSpeedMPH,WindSpeedGustMPH,Humidity,HourlyPrecipIn,Conditions,Clouds,dailyrainin,SoftwareType,DateUTC
2013-04-05 00:00:00,33.7,32.4,30.07,WSW,254,0.0,0.0,95,0.03,,---,0.19,VWS V14.01,2013-04-05 04:00:00,
2013-04-05 00:05:00,33.8,32.8,30.05,WSW,254,1.0,2.0,96,0.02,,---,0.00,VWS V14.01,2013-04-05 04:05:00,
2013-04-05 00:10:00,33.8,32.8,30.05,WSW,254,0.0,0.0,96,0.02,,---,0.00,VWS V14.01,2013-04-05 04:10:00,
2013-04-05 00:15:00,33.8,32.8,30.05,WSW,254,0.0,0.0,96,0.02,,---,0.00,VWS V14.01,2013-04-05 04:15:00,
2013-04-05 00:20:00,33.8,32.8,30.03,WSW,254,0.0,0.0,96,0.02,,---,0.01,VWS V14.01,2013-04-05 04:20:00,
2013-04-05 00:25:00,34.0,33.0,30.03,WSW,242,2.0,2.0,96,0.02,,---,0.01,VWS V14.01,2013-04-05 04:25:00,
2013-04-05 00:30:00,34.0,33.0,30.03,WSW,242,1.0,2.0,96,0.02,,---,0.01,VWS V14.01,2013-04-05 04:30:00,
2013-04-05 00:35:00,34.0,33.0,30.03,WSW,242,1.0,1.0,96,0.01,,---,0.01,VWS V14.01,2013-04-05 04:35:00,
2013-04-05 00:40:00,34.0,33.0,30.03,WSW,242,3.0,4.0,96,0.01,,---,0.01,VWS V14.01,2013-04-05 04:40:00,
2013-04-05 00:45:00,34.0,33.0,30.03,WSW,242,0.0,1.0,96,0.01,,---,0.01,VWS V14.01,2013-04-05 04:45:00,
2013-04-05 00:50:00,34.0,33.0,30.02,WSW,242,0.0,0.0,96,0.02,,---,0.02,VWS V14.01,2013-04-05 04:50:00,
2013-04-05 00:55:00,34.0,33.0,30.02,WSW,242,0.0,0.0,96,0.02,,---,0.02,VWS V14.01,2013-04-05 04:55:00,
2013-04-05 01:00:00,33.8,32.8,30.02,WSW,242,1.0,2.0,96,0.02,,---,0.02,VWS V14.01,2013-04-05 05:00:00,
2013-04-05 01:05:00,33.8,32.8,30.01,WSW,242,0.0,0.0,96,0.02,,---,0.02,VWS V14.01,2013-04-05 05:05:00,
2013-04-05 01:10:00,33.8,33.0,30.01,WSW,242,1.0,2.0,97,0.02,,---,0.02,VWS V14.01,2013-04-05 05:10:00,
2013-04-05 01:15:00,33.8,33.0,30.01,WSW,243,0.0,1.0,97,0.02,,---,0.02,VWS V14.01,2013-04-05 05:15:00,
2013-04-05 01:20:00,33.8,33.0,30.00,WSW,243,0.0,0.0,97,0.01,,---,0.02,VWS V14.01,2013-04-05 05:20:00,
2013-04-05 01:25:00,34.0,33.2,30.00,WSW,243,0.0,0.0,97,0.01,,---,0.02,VWS V14.01,2013-04-05 05:25:00,
2013-04-05 01:30:00,33.8,33.0,30.00,WSW,243,0.0,0.0,97,0.01,,---,0.02,VWS V14.01,2013-04-05 05:30:00,
2013-04-05 01:35:00,34.0,33.2,29.99,WSW,243,0.0,0.0,97,0.01,,---,0.02,VWS V14.01,2013-04-05 05:35:00,
2013-04-05 01:40:00,34.0,33.2,29.99,WSW,243,0.0,0.0,97,0.01,,---,0.02,VWS V14.01,2013-04-05 05:40:00,
2013-04-05 01:45:00,34.0,33.2,29.99,NNE,22,4.0,4.0,97,0.02,,---,0.03,VWS V14.01,2013-04-05 05:45:00,
2013-04-05 01:50:00,34.1,33.3,29.98,NNE,30,0.0,2.0,97,0.01,,---,0.03,VWS V14.01,2013-04-05 05:50:00,
2013-04-05 01:55:00,34.1,33.3,29.98,NNE,33,0.0,2.0,97,0.01,,---,0.03,VWS V14.01,2013-04-05 05:55:00,
2013-04-05 02:00:00,34.1,33.3,29.98,NNE,33,0.0,0.0,97,0.01,,---,0.03,VWS V14.01,2013-04-05 06:00:00,
2013-04-05 02:05:00,34.0,33.2,29.98,NNE,33,0.0,0.0,97,0.02,,---,0.04,VWS V14.01,2013-04-05 06:05:00,
2013-04-05 02:10:00,34.0,33.2,29.98,NNE,33,0.0,0.0,97,0.02,,---,0.04,VWS V14.01,2013-04-05 06:10:00,
2013-04-05 02:15:00,34.1,33.3,29.98,NNE,33,0.0,0.0,97,0.02,,---,0.04,VWS V14.01,2013-04-05 06:15:00,
2013-04-05 02:20:00,34.1,33.3,29.98,NNE,33,2.0,2.0,97,0.03,,---,0.05,VWS V14.01,2013-04-05 06:20:00,
2013-04-05 02:25:00,34.1,33.3,29.98,NNE,33,0.0,0.0,97,0.04,,---,0.06,VWS V14.01,2013-04-05 06:25:00,
2013-04-05 02:30:00,34.1,33.3,29.98,NNE,33,0.0,0.0,97,0.05,,---,0.07,VWS V14.01,2013-04-05 06:30:00,
2013-04-05 02:35:00,34.1,33.3,29.97,NNE,33,1.0,2.0,97,0.05,,---,0.07,VWS V14.01,2013-04-05 06:35:00,
2013-04-05 02:40:00,34.1,33.3,29.97,NE,40,3.0,4.0,97,0.05,,---,0.07,VWS V14.01,2013-04-05 06:40:00,
2013-04-05 02:45:00,34.1,33.3,29.97,South,180,1.0,2.0,97,0.05,,---,0.08,VWS V14.01,2013-04-05 06:45:00,
2013-04-05 02:50:00,34.1,33.3,29.97,South,180,2.0,2.0,97,0.05,,---,0.08,VWS V14.01,2013-04-05 06:50:00,
2013-04-05 02:55:00,34.1,33.3,29.97,South,180,0.0,0.0,97,0.05,,---,0.08,VWS V14.01,2013-04-05 06:55:00,
2013-04-05 03:00:00,34.1,33.3,29.97,South,180,0.0,1.0,97,0.05,,---,0.08,VWS V14.01,2013-04-05 07:00:00,
2013-04-05 03:05:00,34.1,33.3,29.96,South,180,0.0,0.0,97,0.05,,---,0.09,VWS V14.01,2013-04-05 07:05:00,
2013-04-05 03:10:00,34.1,33.3,29.96,South,180,0.0,1.0,97,0.06,,---,0.10,VWS V14.01,2013-04-05 07:10:00,
2013-04-05 03:15:00,34.1,33.3,29.96,South,180,0.0,0.0,97,0.07,,---,0.11,VWS V14.01,2013-04-05 07:15:00,
2013-04-05 03:20:00,34.0,33.2,29.96,South,180,0.0,0.0,97,0.06,,---,0.11,VWS V14.01,2013-04-05 07:20:00,
2013-04-05 03:25:00,34.0,33.2,29.96,South,180,0.0,0.0,97,0.06,,---,0.12,VWS V14.01,2013-04-05 07:25:00,
2013-04-05 03:30:00,34.0,33.2,29.96,South,180,0.0,0.0,97,0.05,,---,0.12,VWS V14.01,2013-04-05 07:30:00,
2013-04-05 03:35:00,34.1,33.3,29.97,NE,40,2.0,4.0,97,0.05,,---,0.07,VWS V14.01,2013-04-05 07:35:00,
2013-04-05 03:36:00,34.0,33.2,29.95,South,180,0.0,0.0,97,0.05,,---,0.12,VWS V14.01,2013-04-05 07:36:00,
2013-04-05 03:40:00,34.1,33.3,29.97,South,180,2.0,5.0,97,0.06,,---,0.08,VWS V14.01,2013-04-05 07:40:00,
2013-04-05 03:41:00,34.0,33.2,29.95,South,180,0.0,0.0,97,0.05,,---,0.12,VWS V14.01,2013-04-05 07:41:00,
2013-04-05 03:45:00,34.1,33.3,29.97,South,180,2.0,4.0,97,0.05,,---,0.08,VWS V14.01,2013-04-05 07:45:00,
2013-04-05 03:46:00,34.0,33.2,29.95,South,180,0.0,1.0,97,0.04,,---,0.12,VWS V14.01,2013-04-05 07:46:00,
2013-04-05 03:50:00,34.1,33.3,29.97,South,180,0.0,3.0,97,0.05,,---,0.08,VWS V14.01,2013-04-05 07:50:00,
2013-04-05 03:51:00,34.0,33.2,29.95,South,180,0.0,0.0,97,0.05,,---,0.13,VWS V14.01,2013-04-05 07:51:00,
2013-04-05 03:55:00,34.1,33.3,29.97,South,180,1.0,1.0,97,0.05,,---,0.08,VWS V14.01,2013-04-05 07:55:00,
2013-04-05 03:56:00,34.0,33.2,29.95,South,180,0.0,0.0,97,0.05,,---,0.13,VWS V14.01,2013-04-05 07:56:00,
2013-04-05 04:00:00,34.1,33.3,29.96,South,180,0.0,2.0,97,0.06,,---,0.09,VWS V14.01,2013-04-05 08:00:00,
2013-04-05 04:01:00,34.0,33.2,29.95,South,180,0.0,0.0,97,0.06,,---,0.14,VWS V14.01,2013-04-05 08:01:00,
2013-04-05 04:05:00,34.1,33.3,29.96,South,180,1.0,1.0,97,0.06,,---,0.10,VWS V14.01,2013-04-05 08:05:00,
2013-04-05 04:06:00,34.0,33.2,29.95,South,180,0.0,0.0,97,0.05,,---,0.14,VWS V14.01,2013-04-05 08:06:00,
2013-04-05 04:10:00,34.1,33.3,29.96,South,180,0.0,1.0,97,0.06,,---,0.10,VWS V14.01,2013-04-05 08:10:00,
2013-04-05 04:11:00,34.0,33.2,29.95,South,180,1.0,1.0,97,0.04,,---,0.14,VWS V14.01,2013-04-05 08:11:00,
2013-04-05 04:15:00,34.0,33.2,29.96,South,180,0.0,0.0,97,0.07,,---,0.11,VWS V14.01,2013-04-05 08:15:00,
2013-04-05 04:16:00,34.0,33.2,29.95,South,180,0.0,0.0,97,0.05,,---,0.15,VWS V14.01,2013-04-05 08:16:00,
2013-04-05 04:20:00,34.0,33.2,29.96,South,180,0.0,0.0,97,0.07,,---,0.12,VWS V14.01,2013-04-05 08:20:00,
2013-04-05 04:21:00,34.0,33.2,29.95,South,180,0.0,0.0,97,0.04,,---,0.15,VWS V14.01,2013-04-05 08:21:00,
2013-04-05 04:25:00,34.0,33.2,29.96,South,180,0.0,0.0,97,0.06,,---,0.12,VWS V14.01,2013-04-05 08:25:00,
2013-04-05 04:26:00,34.0,33.2,29.95,South,180,0.0,0.0,97,0.04,,---,0.16,VWS V14.01,2013-04-05 08:26:00,
2013-04-05 04:30:00,34.0,33.2,29.95,South,180,0.0,0.0,97,0.05,,---,0.12,VWS V14.01,2013-04-05 08:30:00,
2013-04-05 04:31:00,34.0,33.2,29.95,South,180,0.0,0.0,97,0.05,,---,0.17,VWS V14.01,2013-04-05 08:31:00,
2013-04-05 04:35:00,34.0,33.2,29.95,South,180,0.0,0.0,97,0.05,,---,0.12,VWS V14.01,2013-04-05 08:35:00,
2013-04-05 04:36:00,34.0,33.2,29.95,South,180,0.0,0.0,97,0.06,,---,0.18,VWS V14.01,2013-04-05 08:36:00,
2013-04-05 04:40:00,34.0,33.2,29.95,South,180,1.0,2.0,97,0.05,,---,0.12,VWS V14.01,2013-04-05 08:40:00,
2013-04-05 04:41:00,34.0,33.2,29.95,South,180,0.0,0.0,97,0.06,,---,0.18,VWS V14.01,2013-04-05 08:41:00,
2013-04-05 04:45:00,34.0,33.2,29.95,South,180,0.0,1.0,97,0.05,,---,0.13,VWS V14.01,2013-04-05 08:45:00,
2013-04-05 04:46:00,34.0,33.2,29.95,South,180,0.0,0.0,97,0.06,,---,0.18,VWS V14.01,2013-04-05 08:46:00,
2013-04-05 04:50:00,34.0,33.2,29.95,South,180,0.0,0.0,97,0.05,,---,0.13,VWS V14.01,2013-04-05 08:50:00,
2013-04-05 04:51:00,34.0,33.2,29.95,South,180,0.0,0.0,97,0.06,,---,0.19,VWS V14.01,2013-04-05 08:51:00,
2013-04-05 04:55:00,34.0,33.2,29.95,South,180,0.0,0.0,97,0.05,,---,0.13,VWS V14.01,2013-04-05 08:55:00,
2013-04-05 04:56:00,34.0,33.2,29.95,South,180,0.0,0.0,97,0.06,,---,0.19,VWS V14.01,2013-04-05 08:56:00,
2013-04-05 05:00:00,34.0,33.2,29.95,South,180,0.0,0.0,97,0.06,,---,0.14,VWS V14.01,2013-04-05 09:00:00,
2013-04-05 05:01:00,34.0,33.2,29.95,South,180,0.0,1.0,97,0.06,,---,0.19,VWS V14.01,2013-04-05 09:01:00,
2013-04-05 05:05:00,34.0,33.2,29.95,South,180,0.0,0.0,97,0.05,,---,0.14,VWS V14.01,2013-04-05 09:05:00,
2013-04-05 05:06:00,34.0,33.5,29.95,South,180,0.0,0.0,98,0.05,,---,0.19,VWS V14.01,2013-04-05 09:06:00,
2013-04-05 05:10:00,34.0,33.2,29.95,South,180,0.0,1.0,97,0.05,,---,0.15,VWS V14.01,2013-04-05 09:10:00,
2013-04-05 05:11:00,34.1,33.6,29.95,South,180,0.0,1.0,98,0.05,,---,0.19,VWS V14.01,2013-04-05 09:11:00,
2013-04-05 05:15:00,34.0,33.2,29.95,South,180,0.0,0.0,97,0.05,,---,0.15,VWS V14.01,2013-04-05 09:15:00,
2013-04-05 05:16:00,34.1,33.6,29.95,South,169,2.0,2.0,98,0.04,,---,0.19,VWS V14.01,2013-04-05 09:16:00,
2013-04-05 05:20:00,34.3,33.8,29.94,SE,142,1.0,2.0,98,0.05,,---,0.20,VWS V14.01,2013-04-05 09:20:00,
2013-04-05 05:25:00,34.0,33.2,29.95,South,180,0.0,0.0,97,0.04,,---,0.16,VWS V14.01,2013-04-05 09:25:00,
2013-04-05 05:26:00,34.3,33.8,29.94,SE,142,1.0,2.0,98,0.04,,---,0.20,VWS V14.01,2013-04-05 09:26:00,
2013-04-05 05:30:00,34.0,33.2,29.95,South,180,0.0,0.0,97,0.06,,---,0.18,VWS V14.01,2013-04-05 09:30:00,
2013-04-05 05:31:00,34.3,33.8,29.94,SE,142,1.0,2.0,98,0.04,,---,0.20,VWS V14.01,2013-04-05 09:31:00,
2013-04-05 05:35:00,34.3,33.8,29.94,SE,142,0.0,1.0,98,0.02,,---,0.20,VWS V14.01,2013-04-05 09:35:00,
2013-04-05 05:40:00,34.3,33.8,29.94,SE,142,0.0,0.0,98,0.02,,---,0.20,VWS V14.01,2013-04-05 09:40:00,
2013-04-05 05:45:00,34.4,33.9,29.94,SE,142,0.0,0.0,98,0.02,,---,0.20,VWS V14.01,2013-04-05 09:45:00,
2013-04-05 05:50:00,34.4,33.9,29.95,SE,142,0.0,0.0,98,0.01,,---,0.20,VWS V14.01,2013-04-05 09:50:00,
2013-04-05 05:55:00,34.4,33.9,29.95,SW,235,3.0,4.0,98,0.01,,---,0.20,VWS V14.01,2013-04-05 09:55:00,
2013-04-05 06:00:00,34.4,33.9,29.95,SW,236,2.0,2.0,98,0.01,,---,0.20,VWS V14.01,2013-04-05 10:00:00,
2013-04-05 06:05:00,34.4,33.9,29.95,SW,236,0.0,0.0,98,0.01,,---,0.20,VWS V14.01,2013-04-05 10:05:00,
2013-04-05 06:10:00,34.4,33.9,29.95,SW,236,0.0,0.0,98,0.01,,---,0.20,VWS V14.01,2013-04-05 10:10:00,
2013-04-05 06:15:00,34.4,33.9,29.95,SW,236,0.0,0.0,98,0.01,,---,0.20,VWS V14.01,2013-04-05 10:15:00,
2013-04-05 06:20:00,34.6,34.1,29.95,SW,236,0.0,0.0,98,0.01,,---,0.20,VWS V14.01,2013-04-05 10:20:00,
2013-04-05 06:25:00,34.6,34.1,29.95,SW,236,0.0,1.0,98,0.00,,---,0.20,VWS V14.01,2013-04-05 10:25:00,
2013-04-05 06:30:00,34.6,34.1,29.95,SW,236,0.0,0.0,98,0.00,,---,0.20,VWS V14.01,2013-04-05 10:30:00,
2013-04-05 06:35:00,34.6,34.1,29.94,SW,236,0.0,1.0,98,0.00,,---,0.20,VWS V14.01,2013-04-05 10:35:00,
2013-04-05 06:40:00,34.6,34.1,29.94,SW,236,0.0,0.0,98,0.00,,---,0.20,VWS V14.01,2013-04-05 10:40:00,
2013-04-05 06:45:00,34.7,34.2,29.94,SW,236,0.0,0.0,98,0.00,,---,0.20,VWS V14.01,2013-04-05 10:45:00,
2013-04-05 06:50:00,34.7,34.2,29.94,SW,236,0.0,0.0,98,0.00,,---,0.20,VWS V14.01,2013-04-05 10:50:00,
2013-04-05 06:55:00,34.7,34.2,29.94,SW,236,0.0,0.0,98,0.00,,---,0.20,VWS V14.01,2013-04-05 10:55:00,
2013-04-05 07:00:00,34.6,34.1,29.94,SW,236,0.0,0.0,98,0.00,,---,0.20,VWS V14.01,2013-04-05 11:00:00,
2013-04-05 07:05:00,34.7,34.2,29.93,SW,236,0.0,0.0,98,0.00,,---,0.20,VWS V14.01,2013-04-05 11:05:00,
2013-04-05 07:10:00,34.7,34.2,29.93,SW,236,0.0,0.0,98,0.00,,---,0.20,VWS V14.01,2013-04-05 11:10:00,
2013-04-05 07:15:00,34.7,34.2,29.93,SW,236,0.0,1.0,98,0.00,,---,0.20,VWS V14.01,2013-04-05 11:15:00,
2013-04-05 07:20:00,34.9,34.4,29.94,SW,236,0.0,1.0,98,0.00,,---,0.20,VWS V14.01,2013-04-05 11:20:00,
2013-04-05 07:25:00,34.9,34.4,29.94,SW,236,0.0,1.0,98,0.00,,---,0.20,VWS V14.01,2013-04-05 11:25:00,
2013-04-05 07:30:00,34.9,34.4,29.94,SW,236,0.0,1.0,98,0.00,,---,0.20,VWS V14.01,2013-04-05 11:30:00,
2013-04-05 07:35:00,34.9,34.4,29.95,SW,236,0.0,1.0,98,0.00,,---,0.20,VWS V14.01,2013-04-05 11:35:00,
2013-04-05 07:40:00,35.0,34.5,29.95,SW,236,0.0,0.0,98,0.00,,---,0.20,VWS V14.01,2013-04-05 11:40:00,
2013-04-05 07:45:00,35.0,34.5,29.95,SW,236,0.0,0.0,98,0.00,,---,0.20,VWS V14.01,2013-04-05 11:45:00,
2013-04-05 07:50:00,35.0,34.5,29.95,SW,236,0.0,0.0,98,0.00,,---,0.20,VWS V14.01,2013-04-05 11:50:00,
2013-04-05 07:55:00,35.1,34.8,29.95,SW,236,0.0,0.0,99,0.00,,---,0.20,VWS V14.01,2013-04-05 11:55:00,
2013-04-05 08:00:00,35.3,35.0,29.95,SW,236,0.0,0.0,99,0.00,,---,0.20,VWS V14.01,2013-04-05 12:00:00,
2013-04-05 08:05:00,35.6,35.3,29.95,SW,236,0.0,0.0,99,0.01,,---,0.21,VWS V14.01,2013-04-05 12:05:00,
2013-04-05 08:10:00,35.9,35.7,29.95,SW,236,2.0,4.0,99,0.01,,---,0.21,VWS V14.01,2013-04-05 12:10:00,
2013-04-05 08:15:00,36.0,35.8,29.95,SW,236,3.0,3.0,99,0.01,,---,0.21,VWS V14.01,2013-04-05 12:15:00,
2013-04-05 08:20:00,36.1,35.8,29.94,SSW,210,2.0,3.0,99,0.01,,---,0.21,VWS V14.01,2013-04-05 12:20:00,
2013-04-05 08:25:00,36.3,36.0,29.94,SSW,210,2.0,3.0,99,0.01,,---,0.21,VWS V14.01,2013-04-05 12:25:00,
2013-04-05 08:30:00,36.7,36.5,29.94,SSW,210,2.0,2.0,99,0.01,,---,0.21,VWS V14.01,2013-04-05 12:30:00,
2013-04-05 08:35:00,37.0,36.8,29.94,South,191,9.0,9.0,99,0.01,,---,0.21,VWS V14.01,2013-04-05 12:35:00,
2013-04-05 08:40:00,37.9,37.6,29.94,East,97,0.0,0.0,99,0.01,,---,0.21,VWS V14.01,2013-04-05 12:40:00,
2013-04-05 08:45:00,37.9,37.6,29.94,SSE,154,0.0,2.0,99,0.02,,---,0.22,VWS V14.01,2013-04-05 12:45:00,
2013-04-05 08:50:00,38.0,37.7,29.93,SE,134,7.0,8.0,99,0.02,,---,0.22,VWS V14.01,2013-04-05 12:50:00,
2013-04-05 08:55:00,38.3,38.0,29.93,ENE,65,2.0,3.0,99,0.02,,---,0.22,VWS V14.01,2013-04-05 12:55:00,
2013-04-05 09:00:00,38.6,38.3,29.93,SE,146,3.0,4.0,99,0.02,,---,0.22,VWS V14.01,2013-04-05 13:00:00,
2013-04-05 09:05:00,39.2,38.9,29.94,South,179,3.0,4.0,99,0.01,,---,0.22,VWS V14.01,2013-04-05 13:05:00,
2013-04-05 09:10:00,39.3,39.0,29.94,South,178,4.0,4.0,99,0.01,,---,0.22,VWS V14.01,2013-04-05 13:10:00,
2013-04-05 09:15:00,39.7,39.2,29.94,South,178,3.0,3.0,98,0.01,,---,0.22,VWS V14.01,2013-04-05 13:15:00,
2013-04-05 09:20:00,40.3,39.8,29.94,SSE,167,3.0,4.0,98,0.01,,---,0.22,VWS V14.01,2013-04-05 13:20:00,
2013-04-05 09:25:00,40.9,40.4,29.94,SSE,149,3.0,5.0,98,0.01,,---,0.22,VWS V14.01,2013-04-05 13:25:00,
2013-04-05 09:30:00,41.3,40.5,29.94,SSE,149,3.0,3.0,97,0.01,,---,0.22,VWS V14.01,2013-04-05 13:30:00,
2013-04-05 09:35:00,41.6,40.5,29.95,SSE,149,0.0,0.0,96,0.01,,---,0.22,VWS V14.01,2013-04-05 13:35:00,
2013-04-05 09:40:00,42.2,40.9,29.95,SSE,149,0.0,0.0,95,0.01,,---,0.22,VWS V14.01,2013-04-05 13:40:00,
2013-04-05 09:45:00,42.6,41.0,29.95,SSE,162,0.0,0.0,94,0.00,,---,0.22,VWS V14.01,2013-04-05 13:45:00,
2013-04-05 09:50:00,43.3,41.7,29.94,SSE,162,2.0,2.0,94,0.00,,---,0.22,VWS V14.01,2013-04-05 13:50:00,
2013-04-05 09:55:00,43.7,41.5,29.94,SSE,161,1.0,4.0,92,0.00,,---,0.22,VWS V14.01,2013-04-05 13:55:00,
2013-04-05 10:00:00,44.3,41.6,29.94,SSE,162,0.0,0.0,90,0.00,,---,0.22,VWS V14.01,2013-04-05 14:00:00,
2013-04-05 10:05:00,44.8,41.2,29.94,SSE,162,0.0,1.0,87,0.00,,---,0.22,VWS V14.01,2013-04-05 14:05:00,
2013-04-05 10:10:00,45.5,41.6,29.94,SSE,160,5.0,6.0,86,0.00,,---,0.22,VWS V14.01,2013-04-05 14:10:00,
2013-04-05 10:15:00,45.8,41.5,29.94,SSE,161,2.0,3.0,85,0.00,,---,0.22,VWS V14.01,2013-04-05 14:15:00,
2013-04-05 10:20:00,46.2,42.5,29.94,SSE,161,1.0,3.0,87,0.00,,---,0.22,VWS V14.01,2013-04-05 14:20:00,
2013-04-05 10:25:00,47.0,42.7,29.94,SSE,161,4.0,4.0,85,0.00,,---,0.22,VWS V14.01,2013-04-05 14:25:00,
2013-04-05 10:30:00,47.7,42.8,29.94,SSE,161,2.0,2.0,83,0.00,,---,0.22,VWS V14.01,2013-04-05 14:30:00,
2013-04-05 10:35:00,48.5,42.6,29.94,SSE,161,4.0,4.0,80,0.00,,---,0.22,VWS V14.01,2013-04-05 14:35:00,
2013-04-05 10:40:00,49.8,42.9,29.94,SSE,152,2.0,4.0,77,0.00,,---,0.22,VWS V14.01,2013-04-05 14:40:00,
2013-04-05 10:45:00,50.4,41.7,29.94,South,169,3.0,5.0,72,0.00,,---,0.22,VWS V14.01,2013-04-05 14:45:00,
2013-04-05 10:50:00,50.8,41.0,29.94,SSE,153,0.0,2.0,69,0.00,,---,0.22,VWS V14.01,2013-04-05 14:50:00,
2013-04-05 10:55:00,51.3,40.3,29.94,SSE,159,5.0,6.0,66,0.00,,---,0.22,VWS V14.01,2013-04-05 14:55:00,
2013-04-05 11:00:00,51.7,38.3,29.94,SE,146,4.0,6.0,60,0.00,,---,0.22,VWS V14.01,2013-04-05 15:00:00,
2013-04-05 11:05:00,52.2,38.8,29.94,NW,316,4.0,4.0,60,0.00,,---,0.22,VWS V14.01,2013-04-05 15:05:00,
2013-04-05 11:10:00,52.6,36.9,29.94,SW,223,6.0,7.0,55,0.00,,---,0.22,VWS V14.01,2013-04-05 15:10:00,
2013-04-05 11:15:00,52.9,37.2,29.94,SW,233,3.0,5.0,55,0.00,,---,0.22,VWS V14.01,2013-04-05 15:15:00,
2013-04-05 11:20:00,53.0,34.9,29.94,WSW,246,0.0,3.0,50,0.00,,---,0.22,VWS V14.01,2013-04-05 15:20:00,
2013-04-05 11:25:00,53.2,33.5,29.94,WSW,250,4.0,4.0,47,0.00,,---,0.22,VWS V14.01,2013-04-05 15:25:00,
2013-04-05 11:30:00,53.6,31.7,29.94,West,279,2.0,2.0,43,0.00,,---,0.22,VWS V14.01,2013-04-05 15:30:00,
2013-04-05 11:35:00,54.4,35.1,29.94,SW,233,4.0,5.0,48,0.00,,---,0.22,VWS V14.01,2013-04-05 15:35:00,
2013-04-05 11:40:00,55.0,32.3,29.94,North,360,8.0,10.0,42,0.00,,---,0.22,VWS V14.01,2013-04-05 15:40:00,
2013-04-05 11:45:00,54.8,29.7,29.94,NE,36,2.0,3.0,38,0.00,,---,0.22,VWS V14.01,2013-04-05 15:45:00,
2013-04-05 11:50:00,55.3,32.6,29.94,NNE,14,2.0,7.0,42,0.00,,---,0.22,VWS V14.01,2013-04-05 15:50:00,
2013-04-05 11:55:00,55.6,32.3,29.94,North,5,3.0,7.0,41,0.00,,---,0.22,VWS V14.01,2013-04-05 15:55:00,
2013-04-05 12:00:00,56.0,33.8,29.94,North,5,11.0,13.0,43,0.00,,---,0.22,VWS V14.01,2013-04-05 16:00:00,
2013-04-05 12:05:00,55.8,32.5,29.93,NNE,13,6.0,9.0,41,0.00,,---,0.22,VWS V14.01,2013-04-05 16:05:00,
2013-04-05 12:10:00,55.6,31.7,29.93,NNW,329,8.0,12.0,40,0.00,,---,0.22,VWS V14.01,2013-04-05 16:10:00,
2013-04-05 12:15:00,55.6,31.1,29.93,North,5,8.0,10.0,39,0.00,,---,0.22,VWS V14.01,2013-04-05 16:15:00,
2013-04-05 12:20:00,55.6,33.5,29.92,North,350,9.0,14.0,43,0.00,,---,0.22,VWS V14.01,2013-04-05 16:20:00,
2013-04-05 12:25:00,55.7,31.8,29.92,NNW,346,5.0,10.0,40,0.00,,---,0.22,VWS V14.01,2013-04-05 16:25:00,
2013-04-05 12:30:00,56.1,33.9,29.92,North,355,4.0,7.0,43,0.00,,---,0.22,VWS V14.01,2013-04-05 16:30:00,
2013-04-05 12:35:00,56.4,32.4,29.92,NW,320,7.0,13.0,40,0.00,,---,0.22,VWS V14.01,2013-04-05 16:35:00,
2013-04-05 12:40:00,56.7,32.7,29.92,North,5,9.0,10.0,40,0.00,,---,0.22,VWS V14.01,2013-04-05 16:40:00,
2013-04-05 12:45:00,57.1,33.0,29.92,North,360,6.0,15.0,40,0.00,,---,0.22,VWS V14.01,2013-04-05 16:45:00,
2013-04-05 12:50:00,57.4,30.7,29.91,NE,40,10.0,13.0,36,0.00,,---,0.22,VWS V14.01,2013-04-05 16:50:00,
2013-04-05 12:55:00,57.2,29.8,29.91,WNW,291,3.0,10.0,35,0.00,,---,0.22,VWS V14.01,2013-04-05 16:55:00,
2013-04-05 13:00:00,57.5,33.4,29.91,WNW,283,6.0,9.0,40,0.00,,---,0.22,VWS V14.01,2013-04-05 17:00:00,
2013-04-05 13:05:00,58.0,31.9,29.91,NW,315,2.0,3.0,37,0.00,,---,0.22,VWS V14.01,2013-04-05 17:05:00,
2013-04-05 13:10:00,58.6,34.4,29.91,NW,318,9.0,9.0,40,0.00,,---,0.22,VWS V14.01,2013-04-05 17:10:00,
2013-04-05 13:15:00,58.7,31.1,29.91,West,271,10.0,12.0,35,0.00,,---,0.22,VWS V14.01,2013-04-05 17:15:00,
2013-04-05 13:20:00,58.6,32.4,29.90,ENE,73,2.0,4.0,37,0.00,,---,0.22,VWS V14.01,2013-04-05 17:20:00,
2013-04-05 13:25:00,56.0,32.0,29.92,NW,323,6.0,13.0,40,0.00,,---,0.22,VWS V14.01,2013-04-05 17:25:00,
2013-04-05 13:26:00,58.7,30.4,29.90,North,355,3.0,6.0,34,0.00,,---,0.22,VWS V14.01,2013-04-05 17:26:00,
2013-04-05 13:30:00,56.4,31.1,29.92,NNW,331,6.0,18.0,38,0.00,,---,0.22,VWS V14.01,2013-04-05 17:30:00,
2013-04-05 13:31:00,58.7,30.4,29.90,WNW,289,6.0,12.0,34,0.00,,---,0.22,VWS V14.01,2013-04-05 17:31:00,
2013-04-05 13:35:00,56.7,31.4,29.92,NE,44,9.0,13.0,38,0.00,,---,0.22,VWS V14.01,2013-04-05 17:35:00,
2013-04-05 13:36:00,58.7,30.4,29.89,WNW,293,4.0,14.0,34,0.00,,---,0.22,VWS V14.01,2013-04-05 17:36:00,
2013-04-05 13:40:00,57.1,33.6,29.92,NE,39,7.0,11.0,41,0.00,,---,0.22,VWS V14.01,2013-04-05 17:40:00,
2013-04-05 13:41:00,59.0,30.7,29.89,North,360,9.0,23.0,34,0.00,,---,0.22,VWS V14.01,2013-04-05 17:41:00,
2013-04-05 13:45:00,57.4,33.3,29.91,North,355,10.0,15.0,40,0.00,,---,0.22,VWS V14.01,2013-04-05 17:45:00,
2013-04-05 13:46:00,59.5,31.9,29.89,WNW,298,5.0,9.0,35,0.00,,---,0.22,VWS V14.01,2013-04-05 17:46:00,
2013-04-05 13:50:00,57.2,29.1,29.91,NW,309,9.0,15.0,34,0.00,,---,0.22,VWS V14.01,2013-04-05 17:50:00,
2013-04-05 13:51:00,59.6,30.5,29.89,NNE,32,5.0,11.0,33,0.00,,---,0.22,VWS V14.01,2013-04-05 17:51:00,
2013-04-05 13:55:00,57.5,32.8,29.91,NW,318,7.0,12.0,39,0.00,,---,0.22,VWS V14.01,2013-04-05 17:55:00,
2013-04-05 13:56:00,59.6,31.2,29.89,SSW,211,3.0,6.0,34,0.00,,---,0.22,VWS V14.01,2013-04-05 17:56:00,
2013-04-05 14:00:00,58.0,31.2,29.91,NNE,13,3.0,13.0,36,0.00,,---,0.22,VWS V14.01,2013-04-05 18:00:00,
2013-04-05 14:01:00,60.3,31.8,29.89,North,9,4.0,11.0,34,0.00,,---,0.22,VWS V14.01,2013-04-05 18:01:00,
2013-04-05 14:05:00,58.4,32.2,29.91,West,278,7.0,10.0,37,0.00,,---,0.22,VWS V14.01,2013-04-05 18:05:00,
2013-04-05 14:06:00,60.1,30.2,29.88,NNE,13,11.0,17.0,32,0.00,,---,0.22,VWS V14.01,2013-04-05 18:06:00,
2013-04-05 14:10:00,58.7,31.8,29.91,NW,309,10.0,15.0,36,0.00,,---,0.22,VWS V14.01,2013-04-05 18:10:00,
2013-04-05 14:11:00,60.1,31.7,29.88,North,355,11.0,15.0,34,0.00,,---,0.22,VWS V14.01,2013-04-05 18:11:00,
2013-04-05 14:15:00,58.6,32.4,29.90,ENE,67,4.0,13.0,37,0.00,,---,0.22,VWS V14.01,2013-04-05 18:15:00,
2013-04-05 14:16:00,60.3,28.8,29.88,NNE,27,0.0,18.0,30,0.00,,---,0.22,VWS V14.01,2013-04-05 18:16:00,
2013-04-05 14:20:00,58.7,30.4,29.90,NNW,340,5.0,12.0,34,0.00,,---,0.22,VWS V14.01,2013-04-05 18:20:00,
2013-04-05 14:21:00,61.1,28.6,29.87,NNW,339,4.0,7.0,29,0.00,,---,0.22,VWS V14.01,2013-04-05 18:21:00,
2013-04-05 14:25:00,58.7,29.7,29.90,WSW,258,12.0,17.0,33,0.00,,---,0.22,VWS V14.01,2013-04-05 18:25:00,
2013-04-05 14:26:00,61.2,27.9,29.87,WNW,296,3.0,13.0,28,0.00,,---,0.22,VWS V14.01,2013-04-05 18:26:00,
2013-04-05 14:30:00,58.7,31.8,29.89,NNE,27,2.0,16.0,36,0.00,,---,0.22,VWS V14.01,2013-04-05 18:30:00,
2013-04-05 14:31:00,61.1,28.6,29.87,WNW,296,3.0,12.0,29,0.00,,---,0.22,VWS V14.01,2013-04-05 18:31:00,
2013-04-05 14:35:00,59.0,30.7,29.89,SSW,196,8.0,17.0,34,0.00,,---,0.22,VWS V14.01,2013-04-05 18:35:00,
2013-04-05 14:36:00,61.1,29.5,29.87,WNW,302,8.0,11.0,30,0.00,,---,0.22,VWS V14.01,2013-04-05 18:36:00,
2013-04-05 14:40:00,59.3,30.2,29.89,WSW,249,9.0,23.0,33,0.00,,---,0.22,VWS V14.01,2013-04-05 18:40:00,
2013-04-05 14:41:00,61.1,27.8,29.87,West,275,10.0,13.0,28,0.00,,---,0.22,VWS V14.01,2013-04-05 18:41:00,
2013-04-05 14:45:00,59.8,30.7,29.89,NNW,348,11.0,17.0,33,0.00,,---,0.22,VWS V14.01,2013-04-05 18:45:00,
2013-04-05 14:46:00,60.9,27.6,29.87,WNW,285,12.0,14.0,28,0.00,,---,0.22,VWS V14.01,2013-04-05 18:46:00,
2013-04-05 14:50:00,59.5,30.4,29.89,North,5,2.0,11.0,33,0.00,,---,0.22,VWS V14.01,2013-04-05 18:50:00,
2013-04-05 14:51:00,61.1,26.9,29.87,WNW,283,5.0,5.0,27,0.00,,---,0.22,VWS V14.01,2013-04-05 18:51:00,
2013-04-05 14:55:00,60.3,32.6,29.89,NNW,348,7.0,13.0,35,0.00,,---,0.22,VWS V14.01,2013-04-05 18:55:00,
2013-04-05 14:56:00,61.4,27.1,29.87,NE,55,6.0,7.0,27,0.00,,---,0.22,VWS V14.01,2013-04-05 18:56:00,
2013-04-05 15:00:00,60.3,31.8,29.88,NNE,29,17.0,17.0,34,0.00,,---,0.22,VWS V14.01,2013-04-05 19:00:00,
2013-04-05 15:01:00,61.4,28.0,29.87,NNW,336,12.0,13.0,28,0.00,,---,0.22,VWS V14.01,2013-04-05 19:01:00,
2013-04-05 15:05:00,60.1,33.1,29.88,NW,304,9.0,17.0,36,0.00,,---,0.22,VWS V14.01,2013-04-05 19:05:00,
2013-04-05 15:06:00,61.5,28.1,29.86,West,279,5.0,9.0,28,0.00,,---,0.22,VWS V14.01,2013-04-05 19:06:00,
2013-04-05 15:10:00,60.3,28.8,29.88,NW,309,3.0,18.0,30,0.00,,---,0.22,VWS V14.01,2013-04-05 19:10:00,
2013-04-05 15:11:00,61.8,31.6,29.86,ENE,64,2.0,6.0,32,0.00,,---,0.22,VWS V14.01,2013-04-05 19:11:00,
2013-04-05 15:15:00,61.1,29.5,29.87,WSW,248,4.0,18.0,30,0.00,,---,0.22,VWS V14.01,2013-04-05 19:15:00,
2013-04-05 15:16:00,61.8,28.4,29.86,NNW,334,3.0,7.0,28,0.00,,---,0.22,VWS V14.01,2013-04-05 19:16:00,
2013-04-05 15:20:00,61.4,28.0,29.87,NNW,345,13.0,16.0,28,0.00,,---,0.22,VWS V14.01,2013-04-05 19:20:00,
2013-04-05 15:21:00,61.8,27.5,29.86,WNW,297,7.0,12.0,27,0.00,,---,0.22,VWS V14.01,2013-04-05 19:21:00,
2013-04-05 15:25:00,61.1,28.6,29.87,NW,308,11.0,20.0,29,0.00,,---,0.22,VWS V14.01,2013-04-05 19:25:00,
2013-04-05 15:26:00,62.0,28.5,29.86,West,265,1.0,8.0,28,0.00,,---,0.22,VWS V14.01,2013-04-05 19:26:00,
2013-04-05 15:30:00,61.1,28.6,29.87,West,277,7.0,12.0,29,0.00,,---,0.22,VWS V14.01,2013-04-05 19:30:00,
2013-04-05 15:31:00,62.2,27.8,29.86,NW,309,6.0,16.0,27,0.00,,---,0.22,VWS V14.01,2013-04-05 19:31:00,
2013-04-05 15:35:00,61.1,27.8,29.87,NNW,331,10.0,18.0,28,0.00,,---,0.22,VWS V14.01,2013-04-05 19:35:00,
2013-04-05 15:36:00,62.2,27.8,29.85,NW,304,13.0,15.0,27,0.00,,---,0.22,VWS V14.01,2013-04-05 19:36:00,
2013-04-05 15:40:00,60.9,27.6,29.87,NW,319,14.0,16.0,28,0.00,,---,0.22,VWS V14.01,2013-04-05 19:40:00,
2013-04-05 15:41:00,62.2,27.8,29.85,NNW,327,6.0,14.0,27,0.00,,---,0.22,VWS V14.01,2013-04-05 19:41:00,
2013-04-05 15:45:00,61.1,26.9,29.87,WNW,292,4.0,16.0,27,0.00,,---,0.22,VWS V14.01,2013-04-05 19:45:00,
2013-04-05 15:46:00,61.8,27.5,29.85,NE,36,6.0,11.0,27,0.00,,---,0.22,VWS V14.01,2013-04-05 19:46:00,
2013-04-05 15:50:00,61.4,27.1,29.87,NNW,336,5.0,9.0,27,0.00,,---,0.22,VWS V14.01,2013-04-05 19:50:00,
2013-04-05 15:51:00,62.0,26.8,29.85,West,265,10.0,19.0,26,0.00,,---,0.22,VWS V14.01,2013-04-05 19:51:00,
2013-04-05 15:55:00,61.4,29.7,29.87,West,271,9.0,16.0,30,0.00,,---,0.22,VWS V14.01,2013-04-05 19:55:00,
2013-04-05 15:56:00,62.2,28.7,29.85,NW,325,8.0,18.0,28,0.00,,---,0.22,VWS V14.01,2013-04-05 19:56:00,
2013-04-05 16:00:00,61.5,31.4,29.86,North,360,9.0,13.0,32,0.00,,---,0.22,VWS V14.01,2013-04-05 20:00:00,
2013-04-05 16:01:00,62.5,27.2,29.85,NW,311,3.0,9.0,26,0.00,,---,0.22,VWS V14.01,2013-04-05 20:01:00,
2013-04-05 16:05:00,61.7,28.3,29.86,ENE,65,4.0,9.0,28,0.00,,---,0.22,VWS V14.01,2013-04-05 20:05:00,
2013-04-05 16:06:00,62.3,27.9,29.85,WNW,296,8.0,12.0,27,0.00,,---,0.22,VWS V14.01,2013-04-05 20:06:00,
2013-04-05 16:10:00,61.8,30.9,29.86,NE,36,0.0,6.0,31,0.00,,---,0.22,VWS V14.01,2013-04-05 20:10:00,
2013-04-05 16:11:00,62.6,28.2,29.85,West,277,6.0,10.0,27,0.00,,---,0.22,VWS V14.01,2013-04-05 20:11:00,
2013-04-05 16:15:00,61.8,28.4,29.86,WSW,244,12.0,19.0,28,0.00,,---,0.22,VWS V14.01,2013-04-05 20:15:00,
2013-04-05 16:16:00,62.8,27.4,29.85,WNW,290,20.0,20.0,26,0.00,,---,0.22,VWS V14.01,2013-04-05 20:16:00,
2013-04-05 16:20:00,62.0,29.4,29.86,NNE,15,5.0,19.0,29,0.00,,---,0.22,VWS V14.01,2013-04-05 20:20:00,
2013-04-05 16:21:00,63.0,28.5,29.85,West,278,9.0,14.0,27,0.00,,---,0.22,VWS V14.01,2013-04-05 20:21:00,
2013-04-05 16:25:00,62.2,26.9,29.86,NNW,348,11.0,21.0,26,0.00,,---,0.22,VWS V14.01,2013-04-05 20:25:00,
2013-04-05 16:26:00,63.0,27.6,29.85,NW,312,4.0,8.0,26,0.00,,---,0.22,VWS V14.01,2013-04-05 20:26:00,
2013-04-05 16:30:00,62.2,28.7,29.85,WNW,282,8.0,16.0,28,0.00,,---,0.22,VWS V14.01,2013-04-05 20:30:00,
2013-04-05 16:31:00,62.8,27.4,29.85,NE,36,4.0,9.0,26,0.00,,---,0.22,VWS V14.01,2013-04-05 20:31:00,
2013-04-05 16:35:00,62.2,27.8,29.85,NW,313,11.0,15.0,27,0.00,,---,0.22,VWS V14.01,2013-04-05 20:35:00,
2013-04-05 16:36:00,62.8,28.4,29.85,North,355,9.0,18.0,27,0.00,,---,0.22,VWS V14.01,2013-04-05 20:36:00,
2013-04-05 16:40:00,62.0,28.5,29.85,North,355,6.0,14.0,28,0.00,,---,0.22,VWS V14.01,2013-04-05 20:40:00,
2013-04-05 16:41:00,62.8,27.4,29.85,NW,323,7.0,10.0,26,0.00,,---,0.22,VWS V14.01,2013-04-05 20:41:00,
2013-04-05 16:45:00,61.8,27.5,29.85,WNW,294,9.0,19.0,27,0.00,,---,0.22,VWS V14.01,2013-04-05 20:45:00,
2013-04-05 16:46:00,62.8,28.4,29.85,NNE,13,5.0,7.0,27,0.00,,---,0.22,VWS V14.01,2013-04-05 20:46:00,
2013-04-05 16:50:00,62.0,28.5,29.85,North,355,7.0,19.0,28,0.00,,---,0.22,VWS V14.01,2013-04-05 20:50:00,
2013-04-05 16:51:00,63.0,30.3,29.85,WNW,303,6.0,12.0,29,0.00,,---,0.22,VWS V14.01,2013-04-05 20:51:00,
2013-04-05 16:55:00,62.3,27.9,29.85,NNW,333,9.0,18.0,27,0.00,,---,0.22,VWS V14.01,2013-04-05 20:55:00,
2013-04-05 16:56:00,63.3,28.8,29.85,NW,321,14.0,14.0,27,0.00,,---,0.22,VWS V14.01,2013-04-05 20:56:00,
2013-04-05 17:00:00,62.5,29.0,29.85,North,350,6.0,15.0,28,0.00,,---,0.22,VWS V14.01,2013-04-05 21:00:00,
2013-04-05 17:01:00,63.3,29.7,29.85,North,5,10.0,17.0,28,0.00,,---,0.22,VWS V14.01,2013-04-05 21:01:00,
2013-04-05 17:05:00,62.5,27.2,29.85,WNW,302,10.0,17.0,26,0.00,,---,0.22,VWS V14.01,2013-04-05 21:05:00,
2013-04-05 17:06:00,63.0,29.4,29.86,NNE,25,9.0,12.0,28,0.00,,---,0.22,VWS V14.01,2013-04-05 21:06:00,
2013-04-05 17:10:00,62.8,27.4,29.85,NW,321,14.0,18.0,26,0.00,,---,0.22,VWS V14.01,2013-04-05 21:10:00,
2013-04-05 17:12:00,62.3,28.8,29.86,WNW,291,5.0,7.0,28,0.00,,---,0.22,VWS V14.01,2013-04-05 21:12:00,
2013-04-05 17:15:00,62.8,28.4,29.85,WNW,288,4.0,21.0,27,0.00,,---,0.22,VWS V14.01,2013-04-05 21:15:00,
2013-04-05 17:17:00,62.6,29.1,29.86,West,268,8.0,10.0,28,0.00,,---,0.22,VWS V14.01,2013-04-05 21:17:00,
2013-04-05 17:20:00,63.0,27.6,29.85,NW,317,8.0,17.0,26,0.00,,---,0.22,VWS V14.01,2013-04-05 21:20:00,
2013-04-05 17:22:00,63.0,28.5,29.86,North,360,6.0,13.0,27,0.00,,---,0.22,VWS V14.01,2013-04-05 21:22:00,
2013-04-05 17:25:00,63.0,28.5,29.85,NNW,344,7.0,21.0,27,0.00,,---,0.22,VWS V14.01,2013-04-05 21:25:00,
2013-04-05 17:27:00,63.4,28.9,29.86,WNW,303,7.0,13.0,27,0.00,,---,0.22,VWS V14.01,2013-04-05 21:27:00,
2013-04-05 17:30:00,62.8,29.2,29.85,NE,36,11.0,11.0,28,0.00,,---,0.22,VWS V14.01,2013-04-05 21:30:00,
2013-04-05 17:32:00,63.4,27.9,29.86,NW,312,13.0,13.0,26,0.00,,---,0.22,VWS V14.01,2013-04-05 21:32:00,
2013-04-05 17:35:00,62.8,28.4,29.85,NW,324,8.0,18.0,27,0.00,,---,0.22,VWS V14.01,2013-04-05 21:35:00,
2013-04-05 17:37:00,63.3,29.7,29.87,ENE,60,0.0,10.0,28,0.00,,---,0.22,VWS V14.01,2013-04-05 21:37:00,
2013-04-05 17:40:00,62.8,31.7,29.85,NNE,19,1.0,11.0,31,0.00,,---,0.22,VWS V14.01,2013-04-05 21:40:00,
2013-04-05 17:42:00,63.3,28.8,29.87,NW,308,5.0,13.0,27,0.00,,---,0.22,VWS V14.01,2013-04-05 21:42:00,
2013-04-05 17:45:00,63.0,28.5,29.85,NNW,327,10.0,15.0,27,0.00,,---,0.22,VWS V14.01,2013-04-05 21:45:00,
2013-04-05 17:47:00,63.1,28.6,29.87,NNW,330,0.0,12.0,27,0.00,,---,0.22,VWS V14.01,2013-04-05 21:47:00,
2013-04-05 17:50:00,63.1,27.7,29.85,NW,305,4.0,15.0,26,0.00,,---,0.22,VWS V14.01,2013-04-05 21:50:00,
2013-04-05 17:52:00,63.0,28.5,29.87,NNW,345,5.0,7.0,27,0.00,,---,0.22,VWS V14.01,2013-04-05 21:52:00,
2013-04-05 17:55:00,63.3,28.8,29.85,NW,321,12.0,14.0,27,0.00,,---,0.22,VWS V14.01,2013-04-05 21:55:00,
2013-04-05 17:57:00,63.1,29.5,29.87,North,5,6.0,8.0,28,0.00,,---,0.22,VWS V14.01,2013-04-05 21:57:00,
2013-04-05 18:00:00,63.1,29.5,29.86,NNE,20,12.0,17.0,28,0.00,,---,0.22,VWS V14.01,2013-04-05 22:00:00,
2013-04-05 18:02:00,62.8,29.2,29.87,North,5,7.0,8.0,28,0.00,,---,0.22,VWS V14.01,2013-04-05 22:02:00,
2013-04-05 18:05:00,62.5,29.8,29.86,NNW,342,6.0,17.0,29,0.00,,---,0.22,VWS V14.01,2013-04-05 22:05:00,
2013-04-05 18:07:00,62.8,28.4,29.88,NNE,15,6.0,9.0,27,0.00,,---,0.22,VWS V14.01,2013-04-05 22:07:00,
2013-04-05 18:10:00,62.5,28.1,29.86,North,360,2.0,10.0,27,0.00,,---,0.22,VWS V14.01,2013-04-05 22:10:00,
2013-04-05 18:12:00,62.6,29.1,29.88,NNE,30,10.0,15.0,28,0.00,,---,0.22,VWS V14.01,2013-04-05 22:12:00,
2013-04-05 18:15:00,62.8,28.4,29.86,NW,310,10.0,10.0,27,0.00,,---,0.22,VWS V14.01,2013-04-05 22:15:00,
2013-04-05 18:17:00,62.2,29.6,29.88,North,360,5.0,7.0,29,0.00,,---,0.22,VWS V14.01,2013-04-05 22:17:00,
2013-04-05 18:20:00,63.3,29.7,29.86,NNW,337,5.0,13.0,28,0.00,,---,0.22,VWS V14.01,2013-04-05 22:20:00,
2013-04-05 18:22:00,62.0,28.5,29.88,North,360,3.0,12.0,28,0.00,,---,0.22,VWS V14.01,2013-04-05 22:22:00,
2013-04-05 18:25:00,63.4,28.9,29.86,West,280,7.0,13.0,27,0.00,,---,0.22,VWS V14.01,2013-04-05 22:25:00,
2013-04-05 18:27:00,61.7,28.3,29.88,NNE,26,7.0,17.0,28,0.00,,---,0.22,VWS V14.01,2013-04-05 22:27:00,
2013-04-05 18:30:00,63.4,28.9,29.87,NW,319,10.0,13.0,27,0.00,,---,0.22,VWS V14.01,2013-04-05 22:30:00,
2013-04-05 18:32:00,61.4,28.9,29.88,NNE,20,7.0,10.0,29,0.00,,---,0.22,VWS V14.01,2013-04-05 22:32:00,
2013-04-05 18:35:00,63.3,28.8,29.87,NNE,13,7.0,12.0,27,0.00,,---,0.22,VWS V14.01,2013-04-05 22:35:00,
2013-04-05 18:37:00,61.2,28.7,29.89,North,355,3.0,10.0,29,0.00,,---,0.22,VWS V14.01,2013-04-05 22:37:00,
2013-04-05 18:40:00,63.3,28.8,29.87,NNW,331,4.0,13.0,27,0.00,,---,0.22,VWS V14.01,2013-04-05 22:40:00,
2013-04-05 18:42:00,61.1,28.6,29.89,North,355,4.0,4.0,29,0.00,,---,0.22,VWS V14.01,2013-04-05 22:42:00,
2013-04-05 18:45:00,63.0,28.5,29.87,NNW,331,4.0,12.0,27,0.00,,---,0.22,VWS V14.01,2013-04-05 22:45:00,
2013-04-05 18:47:00,61.1,28.6,29.89,ESE,108,1.0,4.0,29,0.00,,---,0.22,VWS V14.01,2013-04-05 22:47:00,
2013-04-05 18:50:00,63.0,28.5,29.87,NW,304,8.0,10.0,27,0.00,,---,0.22,VWS V14.01,2013-04-05 22:50:00,
2013-04-05 18:52:00,61.1,29.5,29.90,NNW,341,3.0,6.0,30,0.00,,---,0.22,VWS V14.01,2013-04-05 22:52:00,
2013-04-05 18:55:00,63.0,29.4,29.87,NNE,19,4.0,10.0,28,0.00,,---,0.22,VWS V14.01,2013-04-05 22:55:00,
2013-04-05 18:57:00,60.7,28.3,29.90,North,355,7.0,7.0,29,0.00,,---,0.22,VWS V14.01,2013-04-05 22:57:00,
2013-04-05 19:00:00,62.8,29.2,29.88,WSW,242,2.0,8.0,28,0.00,,---,0.22,VWS V14.01,2013-04-05 23:00:00,
2013-04-05 19:02:00,60.3,27.1,29.90,North,355,5.0,16.0,28,0.00,,---,0.22,VWS V14.01,2013-04-05 23:02:00,
2013-04-05 19:05:00,62.8,29.2,29.88,North,355,5.0,9.0,28,0.00,,---,0.22,VWS V14.01,2013-04-05 23:05:00,
2013-04-05 19:07:00,60.1,26.9,29.91,North,355,3.0,4.0,28,0.00,,---,0.22,VWS V14.01,2013-04-05 23:07:00,
2013-04-05 19:10:00,62.3,28.8,29.88,NE,48,5.0,15.0,28,0.00,,---,0.22,VWS V14.01,2013-04-05 23:10:00,
2013-04-05 19:12:00,59.8,26.6,29.91,North,355,2.0,5.0,28,0.00,,---,0.22,VWS V14.01,2013-04-05 23:12:00,
2013-04-05 19:15:00,62.0,29.4,29.88,North,360,9.0,9.0,29,0.00,,---,0.22,VWS V14.01,2013-04-05 23:15:00,
2013-04-05 19:17:00,59.6,26.5,29.91,North,355,2.0,4.0,28,0.00,,---,0.22,VWS V14.01,2013-04-05 23:17:00,
2013-04-05 19:20:00,62.0,28.5,29.88,NNE,26,8.0,13.0,28,0.00,,---,0.22,VWS V14.01,2013-04-05 23:20:00,
2013-04-05 19:22:00,59.3,28.7,29.92,North,355,2.0,6.0,31,0.00,,---,0.22,VWS V14.01,2013-04-05 23:22:00,
2013-04-05 19:25:00,61.5,28.1,29.88,NE,47,3.0,17.0,28,0.00,,---,0.22,VWS V14.01,2013-04-05 23:25:00,
2013-04-05 19:27:00,59.0,26.8,29.92,North,5,3.0,4.0,29,0.00,,---,0.22,VWS V14.01,2013-04-05 23:27:00,
2013-04-05 19:30:00,61.2,28.7,29.89,North,355,10.0,15.0,29,0.00,,---,0.22,VWS V14.01,2013-04-05 23:30:00,
2013-04-05 19:32:00,58.9,26.7,29.92,NW,309,3.0,10.0,29,0.00,,---,0.22,VWS V14.01,2013-04-05 23:32:00,
2013-04-05 19:35:00,61.1,29.5,29.89,North,355,3.0,10.0,30,0.00,,---,0.22,VWS V14.01,2013-04-05 23:35:00,
2013-04-05 19:37:00,58.6,28.9,29.92,North,355,3.0,5.0,32,0.00,,---,0.22,VWS V14.01,2013-04-05 23:37:00,
2013-04-05 19:40:00,61.1,27.8,29.89,NW,311,0.0,7.0,28,0.00,,---,0.22,VWS V14.01,2013-04-05 23:40:00,
2013-04-05 19:42:00,58.1,26.0,29.92,North,5,3.0,6.0,29,0.00,,---,0.22,VWS V14.01,2013-04-05 23:42:00,
2013-04-05 19:45:00,61.1,29.5,29.90,NNW,342,4.0,11.0,30,0.00,,---,0.22,VWS V14.01,2013-04-05 23:45:00,
2013-04-05 19:47:00,58.0,27.6,29.92,North,360,0.0,4.0,31,0.00,,---,0.22,VWS V14.01,2013-04-05 23:47:00,
2013-04-05 19:50:00,60.9,28.5,29.90,NE,34,2.0,6.0,29,0.00,,---,0.22,VWS V14.01,2013-04-05 23:50:00,
2013-04-05 19:52:00,57.5,27.1,29.93,North,355,1.0,10.0,31,0.00,,---,0.22,VWS V14.01,2013-04-05 23:52:00,
2013-04-05 19:55:00,60.4,28.0,29.90,North,355,5.0,7.0,29,0.00,,---,0.22,VWS V14.01,2013-04-05 23:55:00,
2013-04-05 19:57:00,57.1,30.4,29.93,North,355,3.0,4.0,36,0.00,,---,0.22,VWS V14.01,2013-04-05 23:57:00,
2013-04-05 20:00:00,60.1,26.9,29.91,North,355,1.0,16.0,28,0.00,,---,0.22,VWS V14.01,2013-04-06 00:00:00,
2013-04-05 20:02:00,56.0,31.4,29.93,North,355,5.0,5.0,39,0.00,,---,0.22,VWS V14.01,2013-04-06 00:02:00,
2013-04-05 20:05:00,60.0,26.8,29.91,North,355,3.0,6.0,28,0.00,,---,0.22,VWS V14.01,2013-04-06 00:05:00,
2013-04-05 20:07:00,54.8,31.0,29.94,NNW,337,1.0,4.0,40,0.00,,---,0.22,VWS V14.01,2013-04-06 00:07:00,
2013-04-05 20:10:00,59.8,27.5,29.91,North,355,2.0,5.0,29,0.00,,---,0.22,VWS V14.01,2013-04-06 00:10:00,
2013-04-05 20:12:00,53.8,30.1,29.94,NNW,338,4.0,4.0,40,0.00,,---,0.22,VWS V14.01,2013-04-06 00:12:00,
2013-04-05 20:15:00,59.5,27.2,29.92,North,355,3.0,6.0,29,0.00,,---,0.22,VWS V14.01,2013-04-06 00:15:00,
2013-04-05 20:17:00,53.0,27.4,29.94,NNW,337,3.0,4.0,37,0.00,,---,0.22,VWS V14.01,2013-04-06 00:17:00,
2013-04-05 20:20:00,59.2,27.0,29.92,North,11,4.0,10.0,29,0.00,,---,0.22,VWS V14.01,2013-04-06 00:20:00,
2013-04-05 20:22:00,52.6,29.0,29.95,NNW,338,1.0,4.0,40,0.00,,---,0.22,VWS V14.01,2013-04-06 00:22:00,
2013-04-05 20:25:00,59.0,26.8,29.92,NNE,19,4.0,10.0,29,0.00,,---,0.22,VWS V14.01,2013-04-06 00:25:00,
2013-04-05 20:27:00,53.0,28.7,29.95,North,349,5.0,6.0,39,0.00,,---,0.22,VWS V14.01,2013-04-06 00:27:00,
2013-04-05 20:30:00,58.7,27.4,29.92,North,360,3.0,10.0,30,0.00,,---,0.22,VWS V14.01,2013-04-06 00:30:00,
2013-04-05 20:32:00,52.9,30.5,29.95,North,350,2.0,5.0,42,0.00,,---,0.22,VWS V14.01,2013-04-06 00:32:00,
2013-04-05 20:35:00,58.3,27.0,29.92,North,360,6.0,10.0,30,0.00,,---,0.22,VWS V14.01,2013-04-06 00:35:00,
2013-04-05 20:37:00,52.4,28.8,29.96,North,355,4.0,6.0,40,0.00,,---,0.22,VWS V14.01,2013-04-06 00:37:00,
2013-04-05 20:40:00,58.0,26.8,29.92,North,360,3.0,6.0,30,0.00,,---,0.22,VWS V14.01,2013-04-06 00:40:00,
2013-04-05 20:42:00,52.3,29.3,29.96,North,350,3.0,4.0,41,0.00,,---,0.22,VWS V14.01,2013-04-06 00:42:00,
2013-04-05 20:45:00,57.7,27.3,29.93,NNW,348,5.0,7.0,31,0.00,,---,0.22,VWS V14.01,2013-04-06 00:45:00,
2013-04-05 20:47:00,51.9,29.0,29.96,NNW,336,4.0,5.0,41,0.00,,---,0.22,VWS V14.01,2013-04-06 00:47:00,
2013-04-05 20:50:00,57.4,30.7,29.93,North,355,3.0,10.0,36,0.00,,---,0.22,VWS V14.01,2013-04-06 00:50:00,
2013-04-05 20:52:00,51.4,29.1,29.97,NNW,336,2.0,5.0,42,0.00,,---,0.22,VWS V14.01,2013-04-06 00:52:00,
2013-04-05 20:55:00,56.4,30.5,29.93,North,355,3.0,5.0,37,0.00,,---,0.22,VWS V14.01,2013-04-06 00:55:00,
2013-04-05 20:57:00,51.0,29.3,29.97,North,355,5.0,10.0,43,0.00,,---,0.22,VWS V14.01,2013-04-06 00:57:00,
2013-04-05 21:00:00,55.4,27.5,29.94,NNW,337,3.0,5.0,34,0.00,,---,0.22,VWS V14.01,2013-04-06 01:00:00,
2013-04-05 21:02:00,50.8,29.7,29.97,North,350,2.0,5.0,44,0.00,,---,0.22,VWS V14.01,2013-04-06 01:02:00,
2013-04-05 21:05:00,54.4,31.8,29.94,NNW,338,3.0,4.0,42,0.00,,---,0.22,VWS V14.01,2013-04-06 01:05:00,
2013-04-05 21:07:00,51.0,26.9,29.99,North,9,4.0,10.0,39,0.00,,---,0.22,VWS V14.01,2013-04-06 01:07:00,
2013-04-05 21:10:00,53.3,29.6,29.94,NNW,337,2.0,4.0,40,0.00,,---,0.22,VWS V14.01,2013-04-06 01:10:00,
2013-04-05 21:12:00,51.6,29.9,29.99,North,360,3.0,5.0,43,0.00,,---,0.22,VWS V14.01,2013-04-06 01:12:00,
2013-04-05 21:15:00,52.9,29.2,29.95,NNW,338,4.0,4.0,40,0.00,,---,0.22,VWS V14.01,2013-04-06 01:15:00,
2013-04-05 21:17:00,51.6,28.7,29.99,NNW,346,5.0,6.0,41,0.00,,---,0.22,VWS V14.01,2013-04-06 01:17:00,
2013-04-05 21:20:00,52.7,25.8,29.95,North,355,5.0,10.0,35,0.00,,---,0.22,VWS V14.01,2013-04-06 01:20:00,
2013-04-05 21:22:00,52.2,26.7,29.99,NNE,19,4.0,7.0,37,0.00,,---,0.22,VWS V14.01,2013-04-06 01:22:00,
2013-04-05 21:25:00,53.0,29.3,29.95,North,350,3.0,6.0,40,0.00,,---,0.22,VWS V14.01,2013-04-06 01:25:00,
2013-04-05 21:27:00,52.4,27.6,29.99,North,355,3.0,4.0,38,0.00,,---,0.22,VWS V14.01,2013-04-06 01:27:00,
2013-04-05 21:30:00,52.6,27.7,29.96,North,350,3.0,5.0,38,0.00,,---,0.22,VWS V14.01,2013-04-06 01:30:00,
2013-04-05 21:32:00,52.9,27.4,29.99,North,355,5.0,11.0,37,0.00,,---,0.22,VWS V14.01,2013-04-06 01:32:00,
2013-04-05 21:35:00,52.3,27.5,29.96,NNW,343,3.0,9.0,38,0.00,,---,0.22,VWS V14.01,2013-04-06 01:35:00,
2013-04-05 21:37:00,53.3,27.0,30.00,North,350,6.0,7.0,36,0.00,,---,0.22,VWS V14.01,2013-04-06 01:37:00,
2013-04-05 21:40:00,52.2,28.6,29.96,NNW,337,3.0,6.0,40,0.00,,---,0.22,VWS V14.01,2013-04-06 01:40:00,
2013-04-05 21:42:00,53.5,26.5,30.00,North,355,4.0,5.0,35,0.00,,---,0.22,VWS V14.01,2013-04-06 01:42:00,
2013-04-05 21:45:00,51.6,29.3,29.97,NNW,336,2.0,5.0,42,0.00,,---,0.22,VWS V14.01,2013-04-06 01:45:00,
2013-04-05 21:47:00,53.8,26.8,30.00,NNE,12,9.0,13.0,35,0.00,,---,0.22,VWS V14.01,2013-04-06 01:47:00,
2013-04-05 21:50:00,51.1,29.4,29.97,NNW,336,2.0,5.0,43,0.00,,---,0.22,VWS V14.01,2013-04-06 01:50:00,
2013-04-05 21:52:00,54.1,27.1,30.01,North,5,4.0,11.0,35,0.00,,---,0.22,VWS V14.01,2013-04-06 01:52:00,
2013-04-05 21:55:00,51.0,30.4,29.97,North,350,4.0,10.0,45,0.00,,---,0.22,VWS V14.01,2013-04-06 01:55:00,
2013-04-05 21:57:00,54.2,27.2,30.01,North,360,5.0,6.0,35,0.00,,---,0.22,VWS V14.01,2013-04-06 01:57:00,
2013-04-05 22:00:00,50.7,30.1,29.99,North,355,4.0,5.0,45,0.00,,---,0.22,VWS V14.01,2013-04-06 02:00:00,
2013-04-05 22:02:00,53.9,27.6,30.01,North,5,5.0,10.0,36,0.00,,---,0.22,VWS V14.01,2013-04-06 02:02:00,
2013-04-05 22:05:00,51.4,27.9,29.99,North,360,4.0,10.0,40,0.00,,---,0.22,VWS V14.01,2013-04-06 02:05:00,
2013-04-05 22:07:00,53.8,27.5,30.01,NNW,341,4.0,6.0,36,0.00,,---,0.22,VWS V14.01,2013-04-06 02:07:00,
2013-04-05 22:10:00,51.6,28.7,29.99,North,360,4.0,5.0,41,0.00,,---,0.22,VWS V14.01,2013-04-06 02:10:00,
2013-04-05 22:12:00,53.5,27.2,30.01,NNW,345,5.0,6.0,36,0.00,,---,0.22,VWS V14.01,2013-04-06 02:12:00,
2013-04-05 22:15:00,51.9,27.7,29.99,NNW,342,2.0,6.0,39,0.00,,---,0.22,VWS V14.01,2013-04-06 02:15:00,
2013-04-05 22:17:00,53.2,27.0,30.01,North,360,4.0,7.0,36,0.00,,---,0.22,VWS V14.01,2013-04-06 02:17:00,
2013-04-05 22:20:00,52.4,28.2,29.99,North,355,3.0,7.0,39,0.00,,---,0.22,VWS V14.01,2013-04-06 02:20:00,
2013-04-05 22:22:00,53.0,27.4,30.01,NNW,341,7.0,10.0,37,0.00,,---,0.22,VWS V14.01,2013-04-06 02:22:00,
2013-04-05 22:25:00,52.6,26.4,29.99,North,5,5.0,9.0,36,0.00,,---,0.22,VWS V14.01,2013-04-06 02:25:00,
2013-04-05 22:27:00,53.2,27.6,30.01,NNE,15,10.0,16.0,37,0.00,,---,0.22,VWS V14.01,2013-04-06 02:27:00,
2013-04-05 22:30:00,53.0,27.4,30.00,NNE,13,7.0,11.0,37,0.00,,---,0.22,VWS V14.01,2013-04-06 02:30:00,
2013-04-05 22:32:00,53.3,27.7,30.01,North,5,4.0,11.0,37,0.00,,---,0.22,VWS V14.01,2013-04-06 02:32:00,
2013-04-05 22:35:00,53.5,27.2,30.00,North,350,3.0,7.0,36,0.00,,---,0.22,VWS V14.01,2013-04-06 02:35:00,
2013-04-05 22:37:00,53.2,27.0,30.02,North,355,14.0,14.0,36,0.00,,---,0.22,VWS V14.01,2013-04-06 02:37:00,
2013-04-05 22:40:00,53.6,26.6,30.00,North,355,4.0,9.0,35,0.00,,---,0.22,VWS V14.01,2013-04-06 02:40:00,
2013-04-05 22:42:00,53.2,28.3,30.02,North,355,6.0,8.0,38,0.00,,---,0.22,VWS V14.01,2013-04-06 02:42:00,
2013-04-05 22:45:00,53.9,26.9,30.01,North,11,6.0,13.0,35,0.00,,---,0.22,VWS V14.01,2013-04-06 02:45:00,
2013-04-05 22:47:00,53.0,28.1,30.02,North,350,10.0,13.0,38,0.00,,---,0.22,VWS V14.01,2013-04-06 02:47:00,
2013-04-05 22:50:00,54.2,27.2,30.01,NNE,16,4.0,11.0,35,0.00,,---,0.22,VWS V14.01,2013-04-06 02:50:00,
2013-04-05 22:52:00,52.9,27.4,30.02,North,350,6.0,12.0,37,0.00,,---,0.22,VWS V14.01,2013-04-06 02:52:00,
2013-04-05 22:55:00,54.1,27.1,30.01,NNW,347,4.0,8.0,35,0.00,,---,0.22,VWS V14.01,2013-04-06 02:55:00,
2013-04-05 22:57:00,52.6,28.4,30.02,North,355,6.0,9.0,39,0.00,,---,0.22,VWS V14.01,2013-04-06 02:57:00,
2013-04-05 23:00:00,53.9,26.9,30.01,NNW,342,4.0,10.0,35,0.00,,---,0.22,VWS V14.01,2013-04-06 03:00:00,
2013-04-05 23:02:00,52.4,27.6,30.02,NNE,14,7.0,10.0,38,0.00,,---,0.22,VWS V14.01,2013-04-06 03:02:00,
2013-04-05 23:05:00,53.6,27.3,30.01,NNW,348,5.0,9.0,36,0.00,,---,0.22,VWS V14.01,2013-04-06 03:05:00,
2013-04-05 23:07:00,52.2,28.0,30.02,NNW,338,7.0,7.0,39,0.00,,---,0.22,VWS V14.01,2013-04-06 03:07:00,
2013-04-05 23:10:00,53.3,27.0,30.01,NNW,346,5.0,9.0,36,0.00,,---,0.22,VWS V14.01,2013-04-06 03:10:00,
2013-04-05 23:12:00,52.0,27.8,30.02,North,355,5.0,9.0,39,0.00,,---,0.22,VWS V14.01,2013-04-06 03:12:00,
2013-04-05 23:15:00,53.0,27.4,30.01,NW,323,6.0,8.0,37,0.00,,---,0.22,VWS V14.01,2013-04-06 03:15:00,
2013-04-05 23:17:00,51.9,27.7,30.02,NNW,346,5.0,9.0,39,0.00,,---,0.22,VWS V14.01,2013-04-06 03:17:00,
2013-04-05 23:20:00,53.0,27.4,30.01,NW,324,7.0,12.0,37,0.00,,---,0.22,VWS V14.01,2013-04-06 03:20:00,
2013-04-05 23:22:00,51.7,27.6,30.02,NNW,339,4.0,11.0,39,0.00,,---,0.22,VWS V14.01,2013-04-06 03:22:00,
2013-04-05 23:25:00,53.3,27.7,30.01,NNW,346,10.0,16.0,37,0.00,,---,0.22,VWS V14.01,2013-04-06 03:25:00,
2013-04-05 23:27:00,51.7,28.2,30.02,North,351,5.0,10.0,40,0.00,,---,0.22,VWS V14.01,2013-04-06 03:27:00,
2013-04-05 23:30:00,53.2,27.6,30.02,North,10,7.0,12.0,37,0.00,,---,0.22,VWS V14.01,2013-04-06 03:30:00,
2013-04-05 23:32:00,51.4,27.9,30.02,NNW,348,6.0,9.0,40,0.00,,---,0.22,VWS V14.01,2013-04-06 03:32:00,
2013-04-05 23:35:00,53.3,27.0,30.02,North,360,8.0,14.0,36,0.00,,---,0.22,VWS V14.01,2013-04-06 03:35:00,
2013-04-05 23:37:00,51.1,27.6,30.03,NNW,345,6.0,13.0,40,0.00,,---,0.22,VWS V14.01,2013-04-06 03:37:00,
2013-04-05 23:40:00,53.2,27.6,30.02,North,349,8.0,13.0,37,0.00,,---,0.22,VWS V14.01,2013-04-06 03:40:00,
2013-04-05 23:42:00,51.0,28.1,30.03,North,349,8.0,13.0,41,0.00,,---,0.22,VWS V14.01,2013-04-06 03:42:00,
2013-04-05 23:45:00,52.9,27.4,30.02,NNW,347,6.0,13.0,37,0.00,,---,0.22,VWS V14.01,2013-04-06 03:45:00,
2013-04-05 23:47:00,50.7,27.9,30.03,North,10,9.0,11.0,41,0.00,,---,0.22,VWS V14.01,2013-04-06 03:47:00,
2013-04-05 23:50:00,52.7,27.8,30.02,North,5,4.0,12.0,38,0.00,,---,0.22,VWS V14.01,2013-04-06 03:50:00,
2013-04-05 23:52:00,50.5,28.3,30.03,North,350,4.0,9.0,42,0.00,,---,0.22,VWS V14.01,2013-04-06 03:52:00,
2013-04-05 23:55:00,52.6,27.7,30.02,NW,323,8.0,10.0,38,0.00,,---,0.22,VWS V14.01,2013-04-06 03:55:00,
2013-04-05 23:57:00,50.4,27.6,30.03,North,5,11.0,13.0,41,0.00,,---,0.22,VWS V14.01,2013-04-06 03:57:00,